createdAt,value
2022-10-24T00:12:31.501Z,69.02
2022-10-24T00:27:34.805Z,66.68
2022-10-24T00:42:36.069Z,64.75
2022-10-24T00:57:37.423Z,62.81
2022-10-24T01:12:38.789Z,62.63
2022-10-24T01:27:40.655Z,62.13
2022-10-24T01:42:41.998Z,61.61
2022-10-24T01:57:43.367Z,62.63
2022-10-24T02:12:43.239Z,62.20
2022-10-24T02:27:45.634Z,61.31
2022-10-24T02:42:47.748Z,60.63
2022-10-24T02:57:49.635Z,61.16
2022-10-24T03:12:50.490Z,62.24
2022-10-24T03:27:52.373Z,62.27
2022-10-24T03:42:53.801Z,61.46
2022-10-24T03:57:56.659Z,61.82
2022-10-24T04:12:57.050Z,61.58
2022-10-24T04:27:58.441Z,62.02
2022-10-24T04:42:59.767Z,62.43
2022-10-24T04:58:01.235Z,63.86
2022-10-24T05:13:01.768Z,65.63
2022-10-24T05:28:03.175Z,65.50
2022-10-24T05:43:05.048Z,65.06
2022-10-24T05:58:05.819Z,63.56
2022-10-24T06:13:06.732Z,63.96
2022-10-24T06:43:09.260Z,66.28
2022-10-24T06:58:10.187Z,69.66
2022-10-24T07:13:11.506Z,71.26
2022-10-24T07:28:12.139Z,69.46
2022-10-24T07:43:12.758Z,66.44
2022-10-24T07:58:14.641Z,65.06
2022-10-24T08:16:11.068Z,60.36
2022-10-24T08:31:13.674Z,56.59
2022-10-24T08:46:13.821Z,61.91
2022-10-24T09:01:14.070Z,70.93
2022-10-24T09:16:14.032Z,88.31
2022-10-24T09:31:14.150Z,96.92
2022-10-24T09:46:14.211Z,99.99
2022-10-24T10:01:14.417Z,99.99
2022-10-24T10:16:16.031Z,99.99
2022-10-24T10:31:16.545Z,99.99
2022-10-24T10:46:17.617Z,99.99
2022-10-24T11:01:18.165Z,99.99
2022-10-24T11:16:18.104Z,99.86
2022-10-24T11:31:18.712Z,99.15
2022-10-24T11:46:18.287Z,98.75
2022-10-24T12:01:18.896Z,98.10
2022-10-24T12:16:19.965Z,97.40
2022-10-24T12:31:22.369Z,96.30
2022-10-24T12:46:25.184Z,95.69
2022-10-24T13:01:25.395Z,94.59
2022-10-24T13:16:25.400Z,90.99
2022-10-24T13:31:25.465Z,86.85
2022-10-24T13:46:25.587Z,87.20
2022-10-24T14:01:26.262Z,86.88
2022-10-24T14:16:26.272Z,86.72
2022-10-24T14:31:26.379Z,85.52
2022-10-24T14:46:26.506Z,87.06
2022-10-24T15:01:26.619Z,88.91
2022-10-24T15:16:26.693Z,91.82
2022-10-24T15:31:26.766Z,94.92
2022-10-24T15:46:27.377Z,98.94
2022-10-24T16:01:27.127Z,99.99
2022-10-24T16:16:27.170Z,99.99
2022-10-24T16:31:27.149Z,99.99
2022-10-24T16:46:27.772Z,99.99
2022-10-24T17:01:28.077Z,99.99
2022-10-24T17:16:28.042Z,99.99
2022-10-24T17:31:28.575Z,99.99
2022-10-24T17:46:28.681Z,99.99
2022-10-24T18:01:28.906Z,99.99
2022-10-24T18:16:30.705Z,99.99
2022-10-24T18:31:32.809Z,99.99
2022-10-24T18:46:32.908Z,99.99
2022-10-24T19:01:33.123Z,99.99
2022-10-24T19:16:33.593Z,99.99
2022-10-24T19:31:33.213Z,99.99
2022-10-24T19:46:34.319Z,99.99
2022-10-24T20:01:34.594Z,99.99
2022-10-24T20:16:36.004Z,99.99
2022-10-24T20:31:36.122Z,99.99
2022-10-24T20:46:36.201Z,99.19
2022-10-24T21:01:36.889Z,99.04
2022-10-24T21:16:36.942Z,97.25
2022-10-24T21:31:37.551Z,94.35
2022-10-24T21:46:38.117Z,93.68
2022-10-24T22:01:38.992Z,90.07
2022-10-24T22:16:38.845Z,90.17
2022-10-24T22:31:39.143Z,90.31
2022-10-24T22:46:39.536Z,87.71
2022-10-24T23:01:40.445Z,85.61
2022-10-24T23:16:40.940Z,83.76
2022-10-24T23:31:40.866Z,82.43
2022-10-24T23:46:41.505Z,79.41
